sensor_id;sensor_type;location;lat;lon;timestamp;P1;durP1;ratioP1;P2;durP2;ratioP2
13252;SDS011;6693;54.370;10.132;2022-12-31T00:00:46;9.80;;;3.70;;
13252;SDS011;6693;54.370;10.132;2022-12-31T00:01:49;10.85;;;4.28;;
13252;SDS011;6693;54.370;10.132;2022-12-31T00:02:52;9.40;;;3.90;;
13252;SDS011;6693;54.370;10.132;2022-12-31T00:03:56;10.05;;;4.13;;
13252;SDS011;6693;54.370;10.132;2022-12-31T00:04:59;8.20;;;3.20;;
13252;SDS011;6693;54.370;10.132;2022-12-31T00:06:00;9.02;;;3.70;;
13252;SDS011;6693;54.370;10.132;2022-12-31T00:07:03;8.93;;;3.85;;
13252;SDS011;6693;54.370;10.132;2022-12-31T00:08:06;7.80;;;3.25;;
13252;SDS011;6693;54.370;10.132;2022-12-31T00:09:07;8.98;;;3.53;;
13252;SDS011;6693;54.370;10.132;2022-12-31T00:10:11;9.68;;;3.88;;
13252;SDS011;6693;54.370;10.132;2022-12-31T00:11:12;10.23;;;3.67;;
13252;SDS011;6693;54.370;10.132;2022-12-31T00:12:15;11.27;;;3.83;;
13252;SDS011;6693;54.370;10.132;2022-12-31T00:13:16;7.32;;;3.03;;
13252;SDS011;6693;54.370;10.132;2022-12-31T00:14:19;13.75;;;4.30;;
13252;SDS011;6693;54.370;10.132;2022-12-31T00:15:20;9.27;;;3.50;;
13252;SDS011;6693;54.370;10.132;2022-12-31T00:16:24;9.13;;;3.40;;
13252;SDS011;6693;54.370;10.132;2022-12-31T00:17:28;11.88;;;3.65;;
13252;SDS011;6693;54.370;10.132;2022-12-31T00:18:29;11.60;;;3.53;;
13252;SDS011;6693;54.370;10.132;2022-12-31T00:19:34;9.40;;;4.18;;
13252;SDS011;6693;54.370;10.132;2022-12-31T00:20:37;7.25;;;3.78;;
13252;SDS011;6693;54.370;10.132;2022-12-31T00:21:42;9.20;;;4.43;;
13252;SDS011;6693;54.370;10.132;2022-12-31T00:22:42;8.02;;;3.40;;
13252;SDS011;6693;54.370;10.132;2022-12-31T00:23:45;9.63;;;3.90;;
13252;SDS011;6693;54.370;10.132;2022-12-31T00:24:47;9.95;;;3.10;;
13252;SDS011;6693;54.370;10.132;2022-12-31T00:25:50;10.75;;;3.35;;
13252;SDS011;6693;54.370;10.132;2022-12-31T00:26:50;12.45;;;3.88;;
13252;SDS011;6693;54.370;10.132;2022-12-31T00:27:53;11.70;;;4.57;;
13252;SDS011;6693;54.370;10.132;2022-12-31T00:28:55;11.43;;;3.53;;
13252;SDS011;6693;54.370;10.132;2022-12-31T00:29:59;10.80;;;3.65;;
13252;SDS011;6693;54.370;10.132;2022-12-31T00:31:03;10.02;;;3.92;;
13252;SDS011;6693;54.370;10.132;2022-12-31T00:32:08;10.32;;;2.85;;
13252;SDS011;6693;54.370;10.132;2022-12-31T00:33:09;8.50;;;2.95;;
13252;SDS011;6693;54.370;10.132;2022-12-31T00:34:12;8.85;;;3.05;;
13252;SDS011;6693;54.370;10.132;2022-12-31T00:35:15;8.20;;;3.03;;
13252;SDS011;6693;54.370;10.132;2022-12-31T00:36:19;10.35;;;3.58;;
13252;SDS011;6693;54.370;10.132;2022-12-31T00:37:21;7.25;;;2.45;;
13252;SDS011;6693;54.370;10.132;2022-12-31T00:38:24;7.32;;;2.85;;
13252;SDS011;6693;54.370;10.132;2022-12-31T00:39:25;8.05;;;2.83;;
13252;SDS011;6693;54.370;10.132;2022-12-31T00:40:28;8.80;;;2.88;;
13252;SDS011;6693;54.370;10.132;2022-12-31T00:41:29;8.30;;;2.65;;
13252;SDS011;6693;54.370;10.132;2022-12-31T00:42:32;6.68;;;2.47;;
13252;SDS011;6693;54.370;10.132;2022-12-31T00:43:33;5.55;;;1.92;;
13252;SDS011;6693;54.370;10.132;2022-12-31T00:44:36;8.20;;;3.08;;
13252;SDS011;6693;54.370;10.132;2022-12-31T00:45:37;10.73;;;2.45;;
13252;SDS011;6693;54.370;10.132;2022-12-31T00:46:40;7.50;;;2.78;;
13252;SDS011;6693;54.370;10.132;2022-12-31T00:47:41;8.90;;;2.63;;
13252;SDS011;6693;54.370;10.132;2022-12-31T00:48:44;7.32;;;2.50;;
13252;SDS011;6693;54.370;10.132;2022-12-31T00:49:44;9.02;;;2.50;;
13252;SDS011;6693;54.370;10.132;2022-12-31T00:50:50;7.32;;;2.30;;
13252;SDS011;6693;54.370;10.132;2022-12-31T00:51:51;7.78;;;2.20;;
13252;SDS011;6693;54.370;10.132;2022-12-31T00:52:54;9.60;;;1.95;;
13252;SDS011;6693;54.370;10.132;2022-12-31T00:53:55;7.13;;;2.35;;
13252;SDS011;6693;54.370;10.132;2022-12-31T00:54:59;8.60;;;2.22;;
13252;SDS011;6693;54.370;10.132;2022-12-31T00:55:59;10.77;;;2.85;;
13252;SDS011;6693;54.370;10.132;2022-12-31T00:57:03;6.72;;;2.00;;
13252;SDS011;6693;54.370;10.132;2022-12-31T00:58:04;6.00;;;1.70;;
13252;SDS011;6693;54.370;10.132;2022-12-31T00:59:07;9.40;;;2.45;;
13252;SDS011;6693;54.370;10.132;2022-12-31T01:00:10;6.47;;;2.55;;
13252;SDS011;6693;54.370;10.132;2022-12-31T01:01:15;12.30;;;3.20;;
13252;SDS011;6693;54.370;10.132;2022-12-31T01:02:19;6.10;;;2.28;;
13252;SDS011;6693;54.370;10.132;2022-12-31T01:03:19;7.78;;;1.48;;
13252;SDS011;6693;54.370;10.132;2022-12-31T01:04:22;7.50;;;1.95;;
13252;SDS011;6693;54.370;10.132;2022-12-31T01:05:26;9.30;;;2.38;;
13252;SDS011;6693;54.370;10.132;2022-12-31T01:06:29;8.95;;;2.05;;
13252;SDS011;6693;54.370;10.132;2022-12-31T01:07:32;6.93;;;1.85;;
13252;SDS011;6693;54.370;10.132;2022-12-31T01:08:33;9.48;;;2.20;;
13252;SDS011;6693;54.370;10.132;2022-12-31T01:09:36;11.45;;;3.10;;
13252;SDS011;6693;54.370;10.132;2022-12-31T01:10:36;6.97;;;2.22;;
13252;SDS011;6693;54.370;10.132;2022-12-31T01:11:52;6.80;;;1.90;;
13252;SDS011;6693;54.370;10.132;2022-12-31T01:12:55;7.85;;;1.85;;
13252;SDS011;6693;54.370;10.132;2022-12-31T01:13:56;7.60;;;2.28;;
13252;SDS011;6693;54.370;10.132;2022-12-31T01:15:00;8.05;;;2.10;;
13252;SDS011;6693;54.370;10.132;2022-12-31T01:16:06;7.35;;;2.25;;
13252;SDS011;6693;54.370;10.132;2022-12-31T01:17:10;8.73;;;1.73;;
13252;SDS011;6693;54.370;10.132;2022-12-31T01:18:12;7.10;;;2.15;;
13252;SDS011;6693;54.370;10.132;2022-12-31T01:19:16;6.68;;;2.13;;
13252;SDS011;6693;54.370;10.132;2022-12-31T01:20:22;9.45;;;2.10;;
13252;SDS011;6693;54.370;10.132;2022-12-31T01:21:22;9.85;;;1.73;;
13252;SDS011;6693;54.370;10.132;2022-12-31T01:22:28;7.32;;;2.15;;
13252;SDS011;6693;54.370;10.132;2022-12-31T01:23:29;8.93;;;2.10;;
13252;SDS011;6693;54.370;10.132;2022-12-31T01:24:32;8.82;;;2.25;;
13252;SDS011;6693;54.370;10.132;2022-12-31T01:25:35;9.18;;;2.65;;
13252;SDS011;6693;54.370;10.132;2022-12-31T01:26:37;9.30;;;1.90;;
13252;SDS011;6693;54.370;10.132;2022-12-31T01:27:41;8.10;;;1.83;;
13252;SDS011;6693;54.370;10.132;2022-12-31T01:28:41;9.65;;;3.20;;
13252;SDS011;6693;54.370;10.132;2022-12-31T01:29:44;8.25;;;1.83;;
13252;SDS011;6693;54.370;10.132;2022-12-31T01:30:45;9.85;;;2.53;;
13252;SDS011;6693;54.370;10.132;2022-12-31T01:31:49;7.13;;;1.90;;
13252;SDS011;6693;54.370;10.132;2022-12-31T01:32:49;7.00;;;1.90;;
13252;SDS011;6693;54.370;10.132;2022-12-31T01:33:52;11.20;;;2.17;;
13252;SDS011;6693;54.370;10.132;2022-12-31T01:34:53;8.88;;;1.55;;
13252;SDS011;6693;54.370;10.132;2022-12-31T01:36:00;9.10;;;1.85;;
13252;SDS011;6693;54.370;10.132;2022-12-31T01:37:01;13.82;;;2.75;;
13252;SDS011;6693;54.370;10.132;2022-12-31T01:38:06;6.93;;;2.28;;
13252;SDS011;6693;54.370;10.132;2022-12-31T01:39:08;7.32;;;2.15;;
13252;SDS011;6693;54.370;10.132;2022-12-31T01:40:12;7.20;;;1.80;;
13252;SDS011;6693;54.370;10.132;2022-12-31T01:41:14;6.68;;;1.60;;
13252;SDS011;6693;54.370;10.132;2022-12-31T01:42:19;8.60;;;1.90;;
13252;SDS011;6693;54.370;10.132;2022-12-31T01:43:19;8.02;;;2.03;;
13252;SDS011;6693;54.370;10.132;2022-12-31T01:45:52;8.02;;;1.70;;
13252;SDS011;6693;54.370;10.132;2022-12-31T01:46:53;6.78;;;1.27;;
13252;SDS011;6693;54.370;10.132;2022-12-31T01:47:58;9.65;;;1.73;;
13252;SDS011;6693;54.370;10.132;2022-12-31T01:48:59;5.25;;;1.40;;
13252;SDS011;6693;54.370;10.132;2022-12-31T01:50:07;8.45;;;1.63;;
13252;SDS011;6693;54.370;10.132;2022-12-31T01:51:11;9.35;;;1.52;;
13252;SDS011;6693;54.370;10.132;2022-12-31T01:52:17;8.13;;;2.22;;
13252;SDS011;6693;54.370;10.132;2022-12-31T01:53:22;10.18;;;1.73;;
13252;SDS011;6693;54.370;10.132;2022-12-31T01:54:25;8.73;;;1.48;;
13252;SDS011;6693;54.370;10.132;2022-12-31T01:55:27;6.93;;;1.52;;
13252;SDS011;6693;54.370;10.132;2022-12-31T01:56:33;5.88;;;1.15;;
13252;SDS011;6693;54.370;10.132;2022-12-31T01:57:34;7.90;;;1.75;;
13252;SDS011;6693;54.370;10.132;2022-12-31T01:58:39;6.85;;;1.42;;
13252;SDS011;6693;54.370;10.132;2022-12-31T01:59:44;6.80;;;1.63;;
13252;SDS011;6693;54.370;10.132;2022-12-31T02:00:45;7.57;;;1.85;;
13252;SDS011;6693;54.370;10.132;2022-12-31T02:01:49;7.55;;;1.52;;
13252;SDS011;6693;54.370;10.132;2022-12-31T02:02:51;8.43;;;1.88;;
13252;SDS011;6693;54.370;10.132;2022-12-31T02:03:54;7.00;;;1.77;;
13252;SDS011;6693;54.370;10.132;2022-12-31T02:04:56;8.68;;;2.22;;
13252;SDS011;6693;54.370;10.132;2022-12-31T02:06:01;7.82;;;1.70;;
13252;SDS011;6693;54.370;10.132;2022-12-31T02:07:05;9.85;;;1.83;;
13252;SDS011;6693;54.370;10.132;2022-12-31T02:08:09;6.38;;;1.45;;
13252;SDS011;6693;54.370;10.132;2022-12-31T02:09:13;8.38;;;1.88;;
13252;SDS011;6693;54.370;10.132;2022-12-31T02:10:16;6.68;;;1.98;;
13252;SDS011;6693;54.370;10.132;2022-12-31T02:11:19;4.90;;;1.52;;
13252;SDS011;6693;54.370;10.132;2022-12-31T02:12:23;7.00;;;1.85;;
13252;SDS011;6693;54.370;10.132;2022-12-31T02:13:24;8.80;;;1.70;;
13252;SDS011;6693;54.370;10.132;2022-12-31T02:14:28;10.00;;;1.88;;
13252;SDS011;6693;54.370;10.132;2022-12-31T02:15:33;10.20;;;1.40;;
13252;SDS011;6693;54.370;10.132;2022-12-31T02:16:43;8.75;;;1.77;;
13252;SDS011;6693;54.370;10.132;2022-12-31T02:17:47;7.07;;;1.60;;
13252;SDS011;6693;54.370;10.132;2022-12-31T02:18:56;8.93;;;1.27;;
13252;SDS011;6693;54.370;10.132;2022-12-31T02:21:28;8.00;;;1.33;;
13252;SDS011;6693;54.370;10.132;2022-12-31T02:22:40;6.90;;;1.58;;
13252;SDS011;6693;54.370;10.132;2022-12-31T02:27:15;4.45;;;1.20;;
13252;SDS011;6693;54.370;10.132;2022-12-31T02:28:26;5.03;;;1.40;;
13252;SDS011;6693;54.370;10.132;2022-12-31T02:31:05;6.10;;;1.30;;
13252;SDS011;6693;54.370;10.132;2022-12-31T02:32:12;7.35;;;1.60;;
13252;SDS011;6693;54.370;10.132;2022-12-31T02:33:15;8.98;;;1.58;;
13252;SDS011;6693;54.370;10.132;2022-12-31T02:34:24;7.72;;;1.45;;
13252;SDS011;6693;54.370;10.132;2022-12-31T02:35:28;8.50;;;1.92;;
13252;SDS011;6693;54.370;10.132;2022-12-31T02:36:35;7.63;;;1.73;;
13252;SDS011;6693;54.370;10.132;2022-12-31T02:37:37;8.50;;;1.40;;
13252;SDS011;6693;54.370;10.132;2022-12-31T02:38:42;7.72;;;1.48;;
13252;SDS011;6693;54.370;10.132;2022-12-31T02:39:44;4.95;;;1.05;;
13252;SDS011;6693;54.370;10.132;2022-12-31T02:40:48;8.75;;;1.65;;
13252;SDS011;6693;54.370;10.132;2022-12-31T02:41:49;8.88;;;2.13;;
13252;SDS011;6693;54.370;10.132;2022-12-31T02:42:52;6.20;;;1.52;;
13252;SDS011;6693;54.370;10.132;2022-12-31T02:43:53;8.45;;;2.10;;
13252;SDS011;6693;54.370;10.132;2022-12-31T02:44:56;6.40;;;1.13;;
13252;SDS011;6693;54.370;10.132;2022-12-31T02:46:01;6.63;;;1.33;;
13252;SDS011;6693;54.370;10.132;2022-12-31T02:47:13;5.82;;;1.60;;
13252;SDS011;6693;54.370;10.132;2022-12-31T02:48:22;8.32;;;1.83;;
13252;SDS011;6693;54.370;10.132;2022-12-31T02:49:32;10.07;;;2.22;;
13252;SDS011;6693;54.370;10.132;2022-12-31T02:50:42;9.82;;;1.38;;
13252;SDS011;6693;54.370;10.132;2022-12-31T02:51:56;8.05;;;1.60;;
13252;SDS011;6693;54.370;10.132;2022-12-31T02:53:02;9.15;;;2.00;;
13252;SDS011;6693;54.370;10.132;2022-12-31T02:54:17;7.30;;;2.00;;
13252;SDS011;6693;54.370;10.132;2022-12-31T02:55:24;8.63;;;1.23;;
13252;SDS011;6693;54.370;10.132;2022-12-31T02:56:33;7.20;;;1.80;;
13252;SDS011;6693;54.370;10.132;2022-12-31T02:57:38;9.52;;;1.60;;
13252;SDS011;6693;54.370;10.132;2022-12-31T02:58:44;6.65;;;1.25;;
13252;SDS011;6693;54.370;10.132;2022-12-31T03:00:04;7.07;;;1.10;;
13252;SDS011;6693;54.370;10.132;2022-12-31T03:01:25;8.27;;;1.42;;
13252;SDS011;6693;54.370;10.132;2022-12-31T03:02:42;9.23;;;1.77;;
13252;SDS011;6693;54.370;10.132;2022-12-31T03:03:47;8.30;;;1.90;;
13252;SDS011;6693;54.370;10.132;2022-12-31T03:05:08;5.45;;;1.40;;
13252;SDS011;6693;54.370;10.132;2022-12-31T03:06:11;5.88;;;1.15;;
13252;SDS011;6693;54.370;10.132;2022-12-31T03:07:13;8.32;;;1.35;;
13252;SDS011;6693;54.370;10.132;2022-12-31T03:08:20;7.25;;;1.08;;
13252;SDS011;6693;54.370;10.132;2022-12-31T03:09:21;6.90;;;1.42;;
13252;SDS011;6693;54.370;10.132;2022-12-31T03:10:24;7.85;;;1.38;;
13252;SDS011;6693;54.370;10.132;2022-12-31T03:11:27;6.25;;;0.93;;
13252;SDS011;6693;54.370;10.132;2022-12-31T03:12:52;7.85;;;1.27;;
13252;SDS011;6693;54.370;10.132;2022-12-31T03:13:53;7.70;;;1.10;;
13252;SDS011;6693;54.370;10.132;2022-12-31T03:14:53;8.10;;;1.60;;
13252;SDS011;6693;54.370;10.132;2022-12-31T03:15:57;7.00;;;1.67;;
13252;SDS011;6693;54.370;10.132;2022-12-31T03:17:02;9.05;;;1.27;;
13252;SDS011;6693;54.370;10.132;2022-12-31T03:18:04;6.07;;;1.35;;
13252;SDS011;6693;54.370;10.132;2022-12-31T03:19:09;8.85;;;1.13;;
13252;SDS011;6693;54.370;10.132;2022-12-31T03:20:27;8.88;;;1.80;;
13252;SDS011;6693;54.370;10.132;2022-12-31T03:21:44;10.27;;;1.25;;
13252;SDS011;6693;54.370;10.132;2022-12-31T03:23:00;5.05;;;1.02;;
13252;SDS011;6693;54.370;10.132;2022-12-31T03:24:03;6.88;;;1.00;;
13252;SDS011;6693;54.370;10.132;2022-12-31T03:25:19;8.75;;;1.23;;
13252;SDS011;6693;54.370;10.132;2022-12-31T03:26:34;10.07;;;1.88;;
13252;SDS011;6693;54.370;10.132;2022-12-31T03:27:35;9.48;;;2.25;;
13252;SDS011;6693;54.370;10.132;2022-12-31T03:28:36;12.10;;;3.33;;
13252;SDS011;6693;54.370;10.132;2022-12-31T03:29:40;12.80;;;3.33;;
13252;SDS011;6693;54.370;10.132;2022-12-31T03:30:41;9.95;;;3.45;;
13252;SDS011;6693;54.370;10.132;2022-12-31T03:31:45;9.65;;;2.70;;
13252;SDS011;6693;54.370;10.132;2022-12-31T03:32:49;10.80;;;3.22;;
13252;SDS011;6693;54.370;10.132;2022-12-31T03:33:53;14.48;;;4.70;;
13252;SDS011;6693;54.370;10.132;2022-12-31T03:34:56;12.52;;;4.85;;
13252;SDS011;6693;54.370;10.132;2022-12-31T03:35:56;9.20;;;3.38;;
13252;SDS011;6693;54.370;10.132;2022-12-31T03:37:00;13.35;;;4.80;;
13252;SDS011;6693;54.370;10.132;2022-12-31T03:38:00;12.93;;;4.85;;
13252;SDS011;6693;54.370;10.132;2022-12-31T03:39:04;12.75;;;4.70;;
13252;SDS011;6693;54.370;10.132;2022-12-31T03:40:05;11.73;;;4.45;;
13252;SDS011;6693;54.370;10.132;2022-12-31T03:41:10;16.10;;;5.65;;
13252;SDS011;6693;54.370;10.132;2022-12-31T03:42:11;13.13;;;5.22;;
13252;SDS011;6693;54.370;10.132;2022-12-31T03:43:14;14.25;;;4.15;;
13252;SDS011;6693;54.370;10.132;2022-12-31T03:44:18;13.82;;;4.80;;
13252;SDS011;6693;54.370;10.132;2022-12-31T03:45:19;11.88;;;4.45;;
13252;SDS011;6693;54.370;10.132;2022-12-31T03:46:22;15.18;;;3.67;;
13252;SDS011;6693;54.370;10.132;2022-12-31T03:47:23;12.20;;;3.72;;
13252;SDS011;6693;54.370;10.132;2022-12-31T03:48:28;9.43;;;3.88;;
13252;SDS011;6693;54.370;10.132;2022-12-31T03:49:32;10.43;;;3.72;;
13252;SDS011;6693;54.370;10.132;2022-12-31T03:50:32;7.40;;;2.30;;
13252;SDS011;6693;54.370;10.132;2022-12-31T03:51:36;8.35;;;2.42;;
13252;SDS011;6693;54.370;10.132;2022-12-31T03:52:36;13.57;;;3.35;;
13252;SDS011;6693;54.370;10.132;2022-12-31T03:53:40;8.75;;;1.95;;
13252;SDS011;6693;54.370;10.132;2022-12-31T03:54:40;6.97;;;1.92;;
13252;SDS011;6693;54.370;10.132;2022-12-31T03:55:43;8.57;;;1.52;;
13252;SDS011;6693;54.370;10.132;2022-12-31T03:56:46;8.88;;;1.73;;
13252;SDS011;6693;54.370;10.132;2022-12-31T03:57:47;7.65;;;1.80;;
13252;SDS011;6693;54.370;10.132;2022-12-31T03:58:50;9.32;;;2.25;;
13252;SDS011;6693;54.370;10.132;2022-12-31T03:59:51;7.50;;;1.33;;
13252;SDS011;6693;54.370;10.132;2022-12-31T04:00:54;10.02;;;1.70;;
13252;SDS011;6693;54.370;10.132;2022-12-31T04:01:57;6.80;;;1.60;;
13252;SDS011;6693;54.370;10.132;2022-12-31T04:02:58;8.68;;;2.13;;
13252;SDS011;6693;54.370;10.132;2022-12-31T04:04:04;8.68;;;1.42;;
13252;SDS011;6693;54.370;10.132;2022-12-31T04:05:05;7.47;;;1.70;;
13252;SDS011;6693;54.370;10.132;2022-12-31T04:06:09;8.57;;;1.40;;
13252;SDS011;6693;54.370;10.132;2022-12-31T04:07:10;8.07;;;1.75;;
13252;SDS011;6693;54.370;10.132;2022-12-31T04:08:13;7.45;;;1.17;;
13252;SDS011;6693;54.370;10.132;2022-12-31T04:09:13;6.57;;;1.13;;
13252;SDS011;6693;54.370;10.132;2022-12-31T04:10:17;7.30;;;1.73;;
13252;SDS011;6693;54.370;10.132;2022-12-31T04:11:18;8.93;;;1.52;;
13252;SDS011;6693;54.370;10.132;2022-12-31T04:12:21;9.45;;;1.75;;
13252;SDS011;6693;54.370;10.132;2022-12-31T04:13:22;10.13;;;2.00;;
13252;SDS011;6693;54.370;10.132;2022-12-31T04:14:25;8.38;;;1.77;;
13252;SDS011;6693;54.370;10.132;2022-12-31T04:15:25;9.45;;;2.60;;
13252;SDS011;6693;54.370;10.132;2022-12-31T04:16:29;11.35;;;2.53;;
13252;SDS011;6693;54.370;10.132;2022-12-31T04:17:29;8.85;;;1.70;;
13252;SDS011;6693;54.370;10.132;2022-12-31T04:18:33;8.40;;;1.60;;
13252;SDS011;6693;54.370;10.132;2022-12-31T04:19:36;7.53;;;1.23;;
13252;SDS011;6693;54.370;10.132;2022-12-31T04:20:39;8.45;;;1.70;;
13252;SDS011;6693;54.370;10.132;2022-12-31T04:21:40;9.23;;;1.80;;
13252;SDS011;6693;54.370;10.132;2022-12-31T04:22:43;8.55;;;1.52;;
13252;SDS011;6693;54.370;10.132;2022-12-31T04:23:44;5.78;;;1.70;;
13252;SDS011;6693;54.370;10.132;2022-12-31T04:24:47;7.97;;;2.28;;
13252;SDS011;6693;54.370;10.132;2022-12-31T04:25:47;7.82;;;1.88;;
13252;SDS011;6693;54.370;10.132;2022-12-31T04:26:51;8.55;;;1.83;;
13252;SDS011;6693;54.370;10.132;2022-12-31T04:27:51;7.88;;;1.75;;
13252;SDS011;6693;54.370;10.132;2022-12-31T04:28:54;6.65;;;1.90;;
13252;SDS011;6693;54.370;10.132;2022-12-31T04:29:55;7.20;;;1.35;;
13252;SDS011;6693;54.370;10.132;2022-12-31T04:30:58;8.98;;;2.10;;
13252;SDS011;6693;54.370;10.132;2022-12-31T04:31:59;7.85;;;1.50;;
13252;SDS011;6693;54.370;10.132;2022-12-31T04:33:02;9.75;;;1.77;;
13252;SDS011;6693;54.370;10.132;2022-12-31T04:34:03;8.85;;;1.35;;
13252;SDS011;6693;54.370;10.132;2022-12-31T04:35:09;8.95;;;1.60;;
13252;SDS011;6693;54.370;10.132;2022-12-31T04:36:10;10.60;;;1.50;;
13252;SDS011;6693;54.370;10.132;2022-12-31T04:37:13;9.23;;;1.80;;
13252;SDS011;6693;54.370;10.132;2022-12-31T04:38:14;9.93;;;2.00;;
13252;SDS011;6693;54.370;10.132;2022-12-31T04:39:17;6.80;;;1.25;;
13252;SDS011;6693;54.370;10.132;2022-12-31T04:40:20;6.18;;;1.60;;
13252;SDS011;6693;54.370;10.132;2022-12-31T04:41:21;8.30;;;1.73;;
13252;SDS011;6693;54.370;10.132;2022-12-31T04:42:26;10.50;;;1.50;;
13252;SDS011;6693;54.370;10.132;2022-12-31T04:43:26;8.95;;;1.60;;
13252;SDS011;6693;54.370;10.132;2022-12-31T04:44:29;7.68;;;1.60;;
13252;SDS011;6693;54.370;10.132;2022-12-31T04:45:34;6.40;;;1.42;;
13252;SDS011;6693;54.370;10.132;2022-12-31T04:46:34;8.07;;;1.45;;
13252;SDS011;6693;54.370;10.132;2022-12-31T04:47:37;10.38;;;2.00;;
13252;SDS011;6693;54.370;10.132;2022-12-31T04:48:41;8.63;;;1.70;;
13252;SDS011;6693;54.370;10.132;2022-12-31T04:49:41;6.63;;;1.52;;
13252;SDS011;6693;54.370;10.132;2022-12-31T04:50:47;7.97;;;1.63;;
13252;SDS011;6693;54.370;10.132;2022-12-31T04:51:48;8.07;;;1.55;;
13252;SDS011;6693;54.370;10.132;2022-12-31T04:52:51;7.10;;;1.40;;
13252;SDS011;6693;54.370;10.132;2022-12-31T04:53:52;8.15;;;1.58;;
13252;SDS011;6693;54.370;10.132;2022-12-31T04:54:55;6.90;;;1.92;;
13252;SDS011;6693;54.370;10.132;2022-12-31T04:55:55;7.38;;;1.60;;
13252;SDS011;6693;54.370;10.132;2022-12-31T04:56:58;7.68;;;1.60;;
13252;SDS011;6693;54.370;10.132;2022-12-31T04:57:59;10.13;;;2.38;;
13252;SDS011;6693;54.370;10.132;2022-12-31T04:59:04;8.40;;;1.90;;
13252;SDS011;6693;54.370;10.132;2022-12-31T05:00:05;8.55;;;1.48;;
13252;SDS011;6693;54.370;10.132;2022-12-31T05:01:12;7.20;;;1.63;;
13252;SDS011;6693;54.370;10.132;2022-12-31T05:02:13;8.60;;;2.03;;
13252;SDS011;6693;54.370;10.132;2022-12-31T05:03:16;7.30;;;1.88;;
13252;SDS011;6693;54.370;10.132;2022-12-31T05:04:17;8.10;;;2.00;;
13252;SDS011;6693;54.370;10.132;2022-12-31T05:05:21;8.88;;;1.92;;
13252;SDS011;6693;54.370;10.132;2022-12-31T05:06:24;7.43;;;2.05;;
13252;SDS011;6693;54.370;10.132;2022-12-31T05:07:27;6.93;;;2.30;;
13252;SDS011;6693;54.370;10.132;2022-12-31T05:08:28;7.25;;;2.33;;
13252;SDS011;6693;54.370;10.132;2022-12-31T05:09:31;10.68;;;2.00;;
13252;SDS011;6693;54.370;10.132;2022-12-31T05:10:32;9.63;;;2.30;;
13252;SDS011;6693;54.370;10.132;2022-12-31T05:11:35;8.27;;;2.28;;
13252;SDS011;6693;54.370;10.132;2022-12-31T05:12:38;7.18;;;2.05;;
13252;SDS011;6693;54.370;10.132;2022-12-31T05:13:39;10.00;;;2.20;;
13252;SDS011;6693;54.370;10.132;2022-12-31T05:14:43;8.73;;;2.92;;
13252;SDS011;6693;54.370;10.132;2022-12-31T05:15:44;9.18;;;2.72;;
13252;SDS011;6693;54.370;10.132;2022-12-31T05:16:47;8.50;;;2.30;;
13252;SDS011;6693;54.370;10.132;2022-12-31T05:17:51;7.30;;;2.15;;
13252;SDS011;6693;54.370;10.132;2022-12-31T05:18:51;7.70;;;2.58;;
13252;SDS011;6693;54.370;10.132;2022-12-31T05:19:54;6.82;;;2.25;;
13252;SDS011;6693;54.370;10.132;2022-12-31T05:20:55;10.45;;;2.15;;
13252;SDS011;6693;54.370;10.132;2022-12-31T05:22:01;7.78;;;2.08;;
13252;SDS011;6693;54.370;10.132;2022-12-31T05:23:17;9.18;;;3.25;;
13252;SDS011;6693;54.370;10.132;2022-12-31T05:24:20;6.68;;;2.95;;
13252;SDS011;6693;54.370;10.132;2022-12-31T05:25:20;7.50;;;2.85;;
13252;SDS011;6693;54.370;10.132;2022-12-31T05:26:23;11.35;;;3.30;;
13252;SDS011;6693;54.370;10.132;2022-12-31T05:27:24;8.48;;;2.78;;
13252;SDS011;6693;54.370;10.132;2022-12-31T05:28:30;8.00;;;3.08;;
13252;SDS011;6693;54.370;10.132;2022-12-31T05:29:31;10.25;;;3.22;;
13252;SDS011;6693;54.370;10.132;2022-12-31T05:30:34;8.05;;;2.85;;
13252;SDS011;6693;54.370;10.132;2022-12-31T05:31:35;12.02;;;3.63;;
13252;SDS011;6693;54.370;10.132;2022-12-31T05:32:38;7.63;;;3.75;;
13252;SDS011;6693;54.370;10.132;2022-12-31T05:33:39;8.70;;;3.15;;
13252;SDS011;6693;54.370;10.132;2022-12-31T05:34:42;11.75;;;4.72;;
13252;SDS011;6693;54.370;10.132;2022-12-31T05:35:43;8.98;;;4.32;;
13252;SDS011;6693;54.370;10.132;2022-12-31T05:36:46;7.55;;;3.33;;
13252;SDS011;6693;54.370;10.132;2022-12-31T05:37:50;9.05;;;4.32;;
13252;SDS011;6693;54.370;10.132;2022-12-31T05:38:53;10.20;;;4.65;;
13252;SDS011;6693;54.370;10.132;2022-12-31T05:39:56;9.77;;;4.40;;
13252;SDS011;6693;54.370;10.132;2022-12-31T05:40:57;9.70;;;5.05;;
13252;SDS011;6693;54.370;10.132;2022-12-31T05:42:02;8.93;;;3.92;;
13252;SDS011;6693;54.370;10.132;2022-12-31T05:43:02;12.10;;;4.53;;
13252;SDS011;6693;54.370;10.132;2022-12-31T05:44:05;8.98;;;4.68;;
13252;SDS011;6693;54.370;10.132;2022-12-31T05:45:07;10.75;;;4.22;;
13252;SDS011;6693;54.370;10.132;2022-12-31T05:46:12;11.20;;;4.68;;
13252;SDS011;6693;54.370;10.132;2022-12-31T05:47:15;12.13;;;5.30;;
13252;SDS011;6693;54.370;10.132;2022-12-31T05:48:18;10.18;;;4.88;;
13252;SDS011;6693;54.370;10.132;2022-12-31T05:49:19;11.18;;;4.53;;
13252;SDS011;6693;54.370;10.132;2022-12-31T05:50:22;9.90;;;4.78;;
13252;SDS011;6693;54.370;10.132;2022-12-31T05:51:22;9.77;;;5.25;;
13252;SDS011;6693;54.370;10.132;2022-12-31T05:52:26;10.63;;;5.25;;
13252;SDS011;6693;54.370;10.132;2022-12-31T05:53:29;11.80;;;5.57;;
13252;SDS011;6693;54.370;10.132;2022-12-31T05:54:33;10.93;;;5.22;;
13252;SDS011;6693;54.370;10.132;2022-12-31T05:55:34;11.20;;;5.30;;
13252;SDS011;6693;54.370;10.132;2022-12-31T05:56:37;10.43;;;4.45;;
13252;SDS011;6693;54.370;10.132;2022-12-31T05:57:37;13.38;;;5.57;;
13252;SDS011;6693;54.370;10.132;2022-12-31T05:58:41;10.88;;;5.13;;
13252;SDS011;6693;54.370;10.132;2022-12-31T05:59:42;11.18;;;4.50;;
13252;SDS011;6693;54.370;10.132;2022-12-31T06:00:45;10.77;;;5.18;;
13252;SDS011;6693;54.370;10.132;2022-12-31T06:01:46;10.98;;;5.00;;
13252;SDS011;6693;54.370;10.132;2022-12-31T06:02:49;12.55;;;5.53;;
13252;SDS011;6693;54.370;10.132;2022-12-31T06:03:49;10.20;;;4.85;;
13252;SDS011;6693;54.370;10.132;2022-12-31T06:04:53;11.70;;;4.97;;
13252;SDS011;6693;54.370;10.132;2022-12-31T06:05:53;11.93;;;5.60;;
13252;SDS011;6693;54.370;10.132;2022-12-31T06:06:56;9.57;;;4.88;;
13252;SDS011;6693;54.370;10.132;2022-12-31T06:07:57;12.52;;;5.63;;
13252;SDS011;6693;54.370;10.132;2022-12-31T06:09:03;11.75;;;5.32;;
13252;SDS011;6693;54.370;10.132;2022-12-31T06:10:04;10.23;;;4.70;;
13252;SDS011;6693;54.370;10.132;2022-12-31T06:11:08;10.88;;;5.63;;
13252;SDS011;6693;54.370;10.132;2022-12-31T06:12:08;10.45;;;4.72;;
13252;SDS011;6693;54.370;10.132;2022-12-31T06:13:11;12.50;;;5.47;;
13252;SDS011;6693;54.370;10.132;2022-12-31T06:14:12;10.57;;;4.93;;
13252;SDS011;6693;54.370;10.132;2022-12-31T06:15:15;10.07;;;5.05;;
13252;SDS011;6693;54.370;10.132;2022-12-31T06:16:16;11.65;;;4.97;;
13252;SDS011;6693;54.370;10.132;2022-12-31T06:17:19;9.32;;;4.15;;
13252;SDS011;6693;54.370;10.132;2022-12-31T06:18:21;10.85;;;5.35;;
13252;SDS011;6693;54.370;10.132;2022-12-31T06:19:24;9.52;;;4.45;;
13252;SDS011;6693;54.370;10.132;2022-12-31T06:20:25;11.63;;;5.35;;
13252;SDS011;6693;54.370;10.132;2022-12-31T06:21:28;11.43;;;5.18;;
13252;SDS011;6693;54.370;10.132;2022-12-31T06:22:29;10.52;;;5.00;;
13252;SDS011;6693;54.370;10.132;2022-12-31T06:23:32;10.27;;;4.55;;
13252;SDS011;6693;54.370;10.132;2022-12-31T06:24:35;11.35;;;4.50;;
13252;SDS011;6693;54.370;10.132;2022-12-31T06:25:38;12.32;;;4.40;;
13252;SDS011;6693;54.370;10.132;2022-12-31T06:26:39;8.77;;;4.50;;
13252;SDS011;6693;54.370;10.132;2022-12-31T06:27:42;10.13;;;4.40;;
13252;SDS011;6693;54.370;10.132;2022-12-31T06:28:43;10.85;;;4.90;;